Time;durP1;ratioP1;P1;durP2;ratioP2;P2;SDS_P1;SDS_P2;PMS_P1;PMS_P2;Temp;Humidity;BMP_temperature;BMP_pressure;BME280_temperature;BME280_humidity;BME280_pressure;Samples;Min_cycle;Max_cycle;Signal;HPM_P1;HPM_P2
2022/11/10 00:00:47;;;;;;;3.27;2.40;;;;;;;11.40;100.00;98536.94;5096668;28;20264;-76
2022/11/10 00:03:13;;;;;;;5.37;2.60;;;;;;;11.39;100.00;98543.19;5096590;28;20257;-76
2022/11/10 00:05:40;;;;;;;5.67;2.63;;;;;;;11.35;100.00;98537.25;5096667;28;20251;-76
2022/11/10 00:08:10;;;;;;;6.50;2.87;;;;;;;11.36;100.00;98546.00;5096405;28;20331;-77
2022/11/10 00:10:55;;;;;;;5.33;2.40;;;;;;;11.35;100.00;98549.63;5096562;28;20256;-76
2022/11/10 00:13:24;;;;;;;4.07;2.30;;;;;;;11.32;100.00;98555.97;5094827;28;20219;-76
2022/11/10 00:18:35;;;;;;;6.27;2.70;;;;;;;11.30;100.00;98557.00;5100374;28;20267;-77
2022/11/10 00:21:06;;;;;;;3.37;2.30;;;;;;;11.29;100.00;98555.31;5100240;28;20248;-75
2022/11/10 00:23:33;;;;;;;4.57;2.80;;;;;;;11.29;100.00;98566.75;5100134;28;20259;-76
2022/11/10 00:26:00;;;;;;;4.17;2.60;;;;;;;11.29;100.00;98565.91;5100171;28;20255;-76
2022/11/10 00:28:30;;;;;;;4.57;2.80;;;;;;;11.27;100.00;98565.16;5100055;28;20280;-76
2022/11/10 00:30:57;;;;;;;5.67;2.90;;;;;;;11.24;100.00;98557.41;5100158;28;20251;-76
2022/11/10 00:33:24;;;;;;;4.30;2.70;;;;;;;11.24;100.00;98563.56;5100081;28;20258;-76
2022/11/10 00:35:51;;;;;;;4.77;3.03;;;;;;;11.21;100.00;98557.63;5099959;28;20261;-76
2022/11/10 00:38:17;;;;;;;6.30;2.40;;;;;;;11.15;100.00;98558.88;5098251;28;20254;-77
2022/11/10 00:40:44;;;;;;;4.63;2.57;;;;;;;11.09;100.00;98569.84;5099850;28;20261;-77
2022/11/10 00:43:10;;;;;;;4.57;2.70;;;;;;;11.05;100.00;98567.47;5099903;28;20250;-76
2022/11/10 00:45:44;;;;;;;2.60;2.40;;;;;;;10.95;100.00;98577.81;5099793;28;20251;-77
2022/11/10 00:48:10;;;;;;;6.53;2.43;;;;;;;10.85;100.00;98576.69;5099610;28;20667;-76
2022/11/10 00:50:37;;;;;;;8.83;2.77;;;;;;;10.73;100.00;98588.06;5099808;28;20247;-76
2022/11/10 00:53:04;;;;;;;6.17;2.50;;;;;;;10.63;100.00;98580.75;5099772;28;20270;-76
2022/11/10 00:55:31;;;;;;;2.83;2.40;;;;;;;10.54;100.00;98581.34;5099509;28;20323;-76
2022/11/10 00:57:57;;;;;;;6.13;2.50;;;;;;;10.53;100.00;98591.06;5099507;28;20313;-76
2022/11/10 01:00:24;;;;;;;5.90;2.47;;;;;;;10.56;100.00;98598.81;5099528;28;20254;-76
2022/11/10 01:02:52;;;;;;;6.23;2.40;;;;;;;10.58;100.00;98583.69;5099305;28;20254;-77
2022/11/10 01:05:19;;;;;;;6.13;2.80;;;;;;;10.54;100.00;98594.56;5097635;28;20254;-77
2022/11/10 01:07:45;;;;;;;5.97;2.50;;;;;;;10.45;100.00;98597.78;5099344;28;20276;-76
2022/11/10 01:10:12;;;;;;;5.90;2.80;;;;;;;10.37;100.00;98595.59;5099424;28;20262;-76
2022/11/10 01:12:39;;;;;;;6.10;2.60;;;;;;;10.33;100.00;98609.94;5099286;28;20258;-77
2022/11/10 01:15:07;;;;;;;9.83;3.27;;;;;;;10.39;100.00;98606.91;5099089;28;20317;-76
2022/11/10 01:17:33;;;;;;;5.97;2.80;;;;;;;10.31;100.00;98603.03;5099199;28;20218;-77
2022/11/10 01:20:01;;;;;;;4.83;2.57;;;;;;;10.27;100.00;98609.47;5099119;28;20254;-77
2022/11/10 01:22:28;;;;;;;7.57;3.10;;;;;;;10.17;100.00;98614.47;5099095;28;20261;-76
2022/11/10 01:24:54;;;;;;;6.50;3.40;;;;;;;10.26;100.00;98618.31;5098758;28;20248;-76
2022/11/10 01:27:21;;;;;;;5.70;3.23;;;;;;;10.24;100.00;98612.28;5098660;28;20705;-76
2022/11/10 01:29:48;;;;;;;7.17;3.03;;;;;;;10.19;100.00;98620.50;5097696;28;20663;-77
2022/11/10 01:32:14;;;;;;;5.77;2.60;;;;;;;10.11;100.00;98625.41;5098619;28;20257;-78
2022/11/10 01:34:41;;;;;;;6.60;2.63;;;;;;;10.03;100.00;98621.47;5098691;28;20236;-77
2022/11/10 01:37:09;;;;;;;7.23;2.80;;;;;;;9.98;100.00;98631.44;5098825;28;20253;-78
2022/11/10 01:39:36;;;;;;;4.60;2.80;;;;;;;10.05;100.00;98630.19;5098911;28;20254;-77
2022/11/10 01:42:02;;;;;;;5.27;2.90;;;;;;;10.15;100.00;98631.34;5098598;28;20259;-77
2022/11/10 01:44:29;;;;;;;7.63;3.40;;;;;;;10.22;100.00;98632.66;5098614;28;20271;-78
2022/11/10 01:46:56;;;;;;;3.93;2.80;;;;;;;10.30;100.00;98646.25;5098553;28;20261;-77
2022/11/10 01:49:26;;;;;;;5.67;2.70;;;;;;;10.31;100.00;98640.03;5098552;28;20629;-78
2022/11/10 01:51:56;;;;;;;5.07;3.10;;;;;;;10.33;100.00;98638.16;5098499;28;20216;-77
2022/11/10 01:54:26;;;;;;;8.47;3.83;;;;;;;10.30;100.00;98640.97;5098315;28;20314;-77
2022/11/10 01:56:56;;;;;;;4.87;3.27;;;;;;;10.24;100.00;98638.69;5096557;28;20617;-78
2022/11/10 01:59:27;;;;;;;6.07;3.50;;;;;;;10.15;100.00;98628.69;5098329;28;20411;-77
2022/11/10 02:01:58;;;;;;;4.63;2.90;;;;;;;10.04;100.00;98633.75;5098221;28;20660;-78
2022/11/10 02:04:26;;;;;;;5.73;3.00;;;;;;;9.96;100.00;98646.50;5098222;28;20257;-77
2022/11/10 02:06:54;;;;;;;6.63;2.90;;;;;;;9.84;100.00;98644.63;5098303;28;20265;-76
2022/11/10 02:09:21;;;;;;;8.97;3.57;;;;;;;9.79;100.00;98650.13;5098361;28;20613;-76
2022/11/10 02:11:54;;;;;;;7.10;3.67;;;;;;;9.69;100.00;98661.31;5098237;28;20219;-77
2022/11/10 02:14:20;;;;;;;9.97;3.40;;;;;;;9.64;100.00;98650.16;5097959;28;20270;-77
2022/11/10 02:16:47;;;;;;;6.63;3.20;;;;;;;9.55;100.00;98661.28;5098239;28;20214;-77
2022/11/10 02:19:17;;;;;;;6.70;3.50;;;;;;;9.51;100.00;98651.81;5097959;28;20330;-78
2022/11/10 02:21:44;;;;;;;5.97;3.10;;;;;;;9.45;100.00;98663.56;5096085;28;20664;-76
2022/11/10 02:24:11;;;;;;;7.77;3.90;;;;;;;9.39;100.00;98670.97;5097847;28;20630;-77
2022/11/10 02:26:41;;;;;;;5.30;3.63;;;;;;;9.33;100.00;98672.19;5097893;28;20250;-76
2022/11/10 02:29:08;;;;;;;9.03;3.77;;;;;;;9.40;100.00;98677.94;5097833;28;20221;-77
2022/11/10 02:31:35;;;;;;;5.80;3.60;;;;;;;9.38;100.00;98675.41;5097923;28;20541;-77
2022/11/10 02:34:02;;;;;;;6.37;4.00;;;;;;;9.38;100.00;98677.19;5097611;28;20256;-78
2022/11/10 02:36:28;;;;;;;9.13;4.00;;;;;;;9.33;100.00;98681.88;5097495;28;20257;-78
2022/11/10 02:38:56;;;;;;;6.67;3.73;;;;;;;9.33;100.00;98681.88;5096870;28;20297;-78
2022/11/10 02:41:23;;;;;;;8.77;3.73;;;;;;;9.32;100.00;98685.44;5097853;28;20254;-77
2022/11/10 02:43:50;;;;;;;7.93;4.10;;;;;;;9.28;100.00;98695.31;5097723;28;20257;-77
2022/11/10 02:46:17;;;;;;;6.03;3.70;;;;;;;9.25;100.00;98699.91;5097586;28;20262;-77
2022/11/10 02:48:44;;;;;;;9.00;4.43;;;;;;;9.23;100.00;98693.88;5095943;28;20230;-77
2022/11/10 02:51:10;;;;;;;6.17;4.20;;;;;;;9.22;100.00;98700.06;5097457;28;20336;-77
2022/11/10 02:53:37;;;;;;;7.10;3.80;;;;;;;9.16;100.00;98705.66;5097417;28;20255;-76
2022/11/10 02:56:05;;;;;;;9.03;4.10;;;;;;;9.11;100.00;98713.00;5097380;28;20281;-77
2022/11/10 02:58:32;;;;;;;8.27;4.27;;;;;;;9.07;100.00;98708.81;5097411;28;20631;-77
2022/11/10 03:00:59;;;;;;;6.20;4.03;;;;;;;9.05;100.00;98718.59;5097390;28;20261;-77
2022/11/10 03:03:26;;;;;;;5.90;4.13;;;;;;;9.02;100.00;98718.75;5097181;28;20253;-77
2022/11/10 03:05:52;;;;;;;7.50;4.00;;;;;;;8.96;100.00;98724.34;5097275;28;20217;-77
2022/11/10 03:08:19;;;;;;;6.67;3.67;;;;;;;8.90;100.00;98729.97;5096896;28;20360;-77
2022/11/10 03:10:46;;;;;;;6.20;3.90;;;;;;;8.86;100.00;98731.91;5096975;28;20254;-77
2022/11/10 03:13:14;;;;;;;7.20;3.83;;;;;;;8.80;100.00;98741.91;5095307;28;20252;-77
2022/11/10 03:15:40;;;;;;;5.27;4.00;;;;;;;8.80;100.00;98745.41;5097073;28;20298;-77
2022/11/10 03:18:07;;;;;;;7.63;3.80;;;;;;;8.81;100.00;98746.28;5096914;28;20574;-77
2022/11/10 03:20:34;;;;;;;4.50;3.83;;;;;;;8.84;100.00;98735.56;5096813;28;20225;-77
2022/11/10 03:23:02;;;;;;;10.10;4.43;;;;;;;8.81;100.00;98752.38;5096919;28;20250;-77
2022/11/10 03:25:29;;;;;;;8.17;4.57;;;;;;;8.82;100.00;98748.81;5096918;28;20221;-77
2022/11/10 03:27:56;;;;;;;7.37;4.50;;;;;;;8.74;100.00;98745.72;5096878;28;20297;-77
2022/11/10 03:30:23;;;;;;;7.87;4.10;;;;;;;8.78;100.00;98756.97;5096891;28;20622;-77
2022/11/10 03:32:50;;;;;;;5.93;4.20;;;;;;;8.78;100.00;98747.28;5097155;28;20250;-77
2022/11/10 03:35:17;;;;;;;6.50;3.67;;;;;;;8.71;100.00;98747.66;5096681;28;20270;-77
2022/11/10 03:37:44;;;;;;;4.93;3.67;;;;;;;8.76;100.00;98756.19;5096646;28;20214;-76
2022/11/10 03:40:11;;;;;;;8.03;3.83;;;;;;;8.73;100.00;98758.97;5094946;28;20225;-77
2022/11/10 03:42:41;;;;;;;8.07;3.83;;;;;;;8.68;100.00;98764.50;5096681;28;20627;-76
2022/11/10 03:45:09;;;;;;;8.10;3.80;;;;;;;8.66;100.00;98770.78;5096829;28;20247;-77
2022/11/10 03:47:37;;;;;;;5.90;3.23;;;;;;;8.64;100.00;98767.38;5096728;28;20262;-77
2022/11/10 03:50:06;;;;;;;5.67;3.60;;;;;;;8.59;100.00;98772.03;5099900;28;20340;-76
2022/11/10 03:52:33;;;;;;;5.70;3.60;;;;;;;8.56;100.00;98772.19;5100737;28;20254;-77
2022/11/10 03:54:59;;;;;;;7.20;3.80;;;;;;;8.56;100.00;98778.28;5100598;28;20271;-76
2022/11/10 03:57:26;;;;;;;9.57;4.27;;;;;;;8.59;100.00;98772.03;5100652;28;20258;-77
2022/11/10 03:59:52;;;;;;;4.50;3.70;;;;;;;8.69;100.00;98783.81;5100714;28;20251;-77
2022/11/10 04:02:19;;;;;;;7.03;4.13;;;;;;;8.89;100.00;98786.25;5100801;28;20253;-78
2022/11/10 04:10:15;;;;;;;5.73;4.87;;;;;;;9.22;100.00;98779.19;5100549;28;20675;-77
2022/11/10 04:18:28;;;;;;;6.87;4.77;;;;;;;9.18;100.00;98804.03;5094822;28;20205;-76
2022/11/10 04:20:57;;;;;;;5.87;4.40;;;;;;;9.03;100.00;98810.09;5100360;28;20217;-76
2022/11/10 04:23:29;;;;;;;5.80;4.53;;;;;;;8.85;100.00;98816.31;5100268;28;20217;-76
2022/11/10 04:28:43;;;;;;;5.90;4.17;;;;;;;8.67;100.00;98822.53;5100453;28;20282;-77
2022/11/10 04:31:10;;;;;;;9.17;4.03;;;;;;;8.59;100.00;98824.72;5098373;28;20250;-76
2022/11/10 04:33:38;;;;;;;7.67;3.90;;;;;;;8.57;100.00;98826.59;5099983;28;20266;-76
2022/11/10 04:36:06;;;;;;;7.60;3.97;;;;;;;8.51;100.00;98821.63;5099958;28;20301;-76
2022/11/10 04:38:33;;;;;;;8.03;4.10;;;;;;;8.45;100.00;98827.19;5099971;28;20250;-76
2022/11/10 04:41:00;;;;;;;12.43;4.70;;;;;;;8.39;100.00;98827.50;5100000;28;20250;-77
2022/11/10 04:43:27;;;;;;;8.87;4.30;;;;;;;8.45;100.00;98835.94;5099863;28;20256;-76
2022/11/10 04:45:54;;;;;;;6.33;3.83;;;;;;;8.43;100.00;98835.16;5099968;28;20261;-77
2022/11/10 04:48:21;;;;;;;9.70;4.00;;;;;;;8.38;100.00;98838.97;5099744;28;20220;-76
2022/11/10 04:50:48;;;;;;;10.90;4.40;;;;;;;8.32;100.00;98850.63;5099688;28;20257;-76
2022/11/10 04:53:16;;;;;;;7.67;4.13;;;;;;;8.25;100.00;98856.28;5099776;28;20248;-77
2022/11/10 04:55:44;;;;;;;5.40;3.93;;;;;;;8.24;100.00;98858.06;5099376;28;20275;-78
2022/11/10 04:58:12;;;;;;;6.53;4.07;;;;;;;8.26;100.00;98858.00;5098755;28;20331;-77
2022/11/10 05:00:39;;;;;;;6.87;4.23;;;;;;;8.20;100.00;98845.13;5098662;28;20258;-77
2022/11/10 05:03:09;;;;;;;11.20;4.67;;;;;;;8.17;100.00;98850.50;5099758;28;20253;-76
2022/11/10 05:05:36;;;;;;;8.73;4.50;;;;;;;8.23;100.00;98858.13;5099613;28;20251;-77
2022/11/10 05:08:03;;;;;;;8.17;4.07;;;;;;;8.20;100.00;98863.56;5099301;28;20261;-77
2022/11/10 05:10:31;;;;;;;8.47;3.80;;;;;;;8.15;100.00;98865.53;5099346;28;20326;-76
2022/11/10 05:12:58;;;;;;;7.37;3.90;;;;;;;8.11;100.00;98875.34;5099154;28;20256;-76
2022/11/10 05:15:25;;;;;;;8.03;3.97;;;;;;;8.05;100.00;98875.66;5099220;28;20298;-77
2022/11/10 05:17:53;;;;;;;7.30;3.90;;;;;;;8.04;100.00;98880.97;5099282;28;20216;-76
2022/11/10 05:20:22;;;;;;;9.30;4.13;;;;;;;8.01;100.00;98883.72;5099108;28;20263;-76
2022/11/10 05:25:32;;;;;;;6.87;4.00;;;;;;;7.94;100.00;98892.84;5097997;28;20294;-76
2022/11/10 05:27:59;;;;;;;6.70;4.10;;;;;;;7.92;100.00;98884.19;5099240;28;20563;-76
2022/11/10 05:30:26;;;;;;;7.13;4.00;;;;;;;7.88;100.00;98893.13;5098937;28;20258;-76
2022/11/10 05:32:52;;;;;;;6.47;4.50;;;;;;;7.88;100.00;98890.50;5098862;28;20253;-76
2022/11/10 05:35:19;;;;;;;7.00;3.97;;;;;;;7.84;100.00;98894.22;5098707;28;20315;-76
2022/11/10 05:37:46;;;;;;;6.93;4.33;;;;;;;7.85;100.00;98903.81;5098810;28;20293;-77
2022/11/10 05:40:13;;;;;;;5.37;3.87;;;;;;;7.82;100.00;98896.03;5098788;28;20256;-76
2022/11/10 05:42:44;;;;;;;9.97;4.87;;;;;;;7.82;100.00;98893.41;5098782;28;20219;-77
2022/11/10 05:45:11;;;;;;;6.83;4.50;;;;;;;7.82;100.00;98893.41;5098676;28;20629;-77
2022/11/10 05:47:38;;;;;;;8.90;4.07;;;;;;;7.80;100.00;98896.13;5096789;28;20262;-76
2022/11/10 05:50:06;;;;;;;9.07;4.30;;;;;;;7.84;100.00;98896.84;5098971;28;20278;-76
2022/11/10 05:52:33;;;;;;;7.67;4.90;;;;;;;7.84;100.00;98904.75;5098512;28;20269;-76
2022/11/10 05:55:00;;;;;;;11.03;5.73;;;;;;;7.83;100.00;98895.97;5098745;28;20257;-76
2022/11/10 05:57:26;;;;;;;10.93;5.00;;;;;;;7.83;100.00;98905.69;5098601;28;20262;-76
2022/11/10 05:59:54;;;;;;;9.37;4.93;;;;;;;7.90;100.00;98901.84;5098481;28;20254;-78
2022/11/10 06:02:21;;;;;;;8.80;5.10;;;;;;;7.85;100.00;98904.66;5098416;28;20267;-77
2022/11/10 06:04:48;;;;;;;10.40;6.30;;;;;;;7.87;100.00;98908.09;5098417;28;20261;-77
2022/11/10 06:07:14;;;;;;;9.63;4.90;;;;;;;7.89;100.00;98910.66;5098235;28;20241;-78
2022/11/10 06:09:41;;;;;;;9.53;4.67;;;;;;;7.83;100.00;98916.19;5098385;28;20243;-78
2022/11/10 06:12:08;;;;;;;8.37;4.70;;;;;;;7.78;100.00;98933.97;5098156;28;20258;-77
2022/11/10 06:14:34;;;;;;;9.77;4.60;;;;;;;7.75;100.00;98942.00;5096378;28;20278;-77
2022/11/10 06:17:02;;;;;;;8.20;4.60;;;;;;;7.71;100.00;98954.44;5098088;28;20665;-77
2022/11/10 06:19:29;;;;;;;7.83;4.57;;;;;;;7.67;100.00;98954.66;5098043;28;20609;-76
2022/11/10 06:21:56;;;;;;;10.07;4.80;;;;;;;7.66;100.00;98966.09;5098103;28;20254;-77
2022/11/10 06:24:22;;;;;;;10.53;4.97;;;;;;;7.65;100.00;98961.75;5098017;28;20276;-76
2022/11/10 06:26:49;;;;;;;7.53;5.10;;;;;;;7.64;100.00;98960.91;5098162;28;20554;-78
2022/11/10 06:29:15;;;;;;;8.83;4.77;;;;;;;7.63;100.00;98967.09;5097813;28;20254;-78
2022/11/10 06:31:42;;;;;;;7.77;4.50;;;;;;;7.66;100.00;98981.88;5097916;28;20257;-76
2022/11/10 06:34:10;;;;;;;8.83;4.70;;;;;;;7.69;100.00;98981.72;5097704;28;20572;-77
2022/11/10 06:36:38;;;;;;;9.10;5.40;;;;;;;7.76;100.00;98993.69;5097489;28;20715;-76
2022/11/10 06:39:04;;;;;;;8.80;5.23;;;;;;;7.78;100.00;98997.97;5096125;28;20269;-77
2022/11/10 06:41:32;;;;;;;10.07;5.70;;;;;;;7.77;100.00;98995.41;5097599;28;20251;-78
2022/11/10 06:43:59;;;;;;;10.07;5.37;;;;;;;7.82;100.00;99009.22;5097684;28;20214;-77
2022/11/10 06:46:25;;;;;;;7.37;5.27;;;;;;;7.89;100.00;99015.94;5097701;28;20248;-77
2022/11/10 06:48:52;;;;;;;9.63;5.93;;;;;;;7.95;100.00;99026.19;5097844;28;20257;-77
2022/11/10 06:51:20;;;;;;;7.27;5.23;;;;;;;8.04;100.00;99025.75;5097715;28;20250;-77
2022/11/10 06:53:47;;;;;;;8.83;5.40;;;;;;;8.07;100.00;99041.41;5097622;28;20249;-78
2022/11/10 06:56:14;;;;;;;6.70;5.30;;;;;;;8.08;100.00;99037.88;5097450;28;20240;-76
2022/11/10 06:58:40;;;;;;;7.33;4.87;;;;;;;8.12;100.00;99044.69;5097382;28;20403;-77
2022/11/10 07:01:07;;;;;;;8.00;5.57;;;;;;;8.17;100.00;99059.38;5097429;28;20323;-77
2022/11/10 07:03:34;;;;;;;6.73;5.30;;;;;;;8.27;100.00;99057.22;5097238;28;20332;-77
2022/11/10 07:06:01;;;;;;;8.80;5.50;;;;;;;8.34;100.00;99056.84;5095590;28;20624;-77
2022/11/10 07:08:29;;;;;;;9.33;5.27;;;;;;;8.43;100.00;99050.31;5097238;28;20267;-77
2022/11/10 07:10:56;;;;;;;8.97;5.37;;;;;;;8.48;100.00;99066.75;5097537;28;20584;-76
2022/11/10 07:13:23;;;;;;;8.70;5.13;;;;;;;8.48;100.00;99069.41;5097112;28;20257;-76
2022/11/10 07:15:50;;;;;;;9.00;5.40;;;;;;;8.51;100.00;99085.06;5097003;28;20706;-76
2022/11/10 07:18:17;;;;;;;9.73;5.03;;;;;;;8.53;100.00;99092.00;5097154;28;20550;-76
2022/11/10 07:20:44;;;;;;;8.27;5.67;;;;;;;8.54;100.00;99093.69;5097090;28;20293;-75
2022/11/10 07:23:11;;;;;;;7.77;5.23;;;;;;;8.58;100.00;99091.78;5096567;28;20224;-76
2022/11/10 07:25:39;;;;;;;8.97;4.70;;;;;;;8.62;100.00;99104.72;5097045;28;20641;-75
2022/11/10 07:28:09;;;;;;;7.70;4.70;;;;;;;8.58;100.00;99102.31;5097538;28;20221;-75
2022/11/10 07:30:40;;;;;;;7.53;4.20;;;;;;;8.52;100.00;99108.69;5095632;28;20249;-75
2022/11/10 07:33:09;;;;;;;8.10;4.47;;;;;;;8.50;100.00;99109.72;5096877;28;20333;-75
2022/11/10 07:35:36;;;;;;;7.10;4.33;;;;;;;8.49;100.00;99118.53;5096894;28;20277;-77
2022/11/10 07:38:04;;;;;;;8.10;4.27;;;;;;;8.45;100.00;99112.53;5096980;28;20218;-77
2022/11/10 07:40:31;;;;;;;7.30;5.10;;;;;;;8.48;100.00;99127.34;5096962;28;20247;-77
2022/11/10 07:42:59;;;;;;;9.10;5.30;;;;;;;8.47;100.00;99130.91;5096939;28;20220;-77
2022/11/10 07:45:27;;;;;;;8.10;4.73;;;;;;;8.45;100.00;99124.88;5097010;28;20243;-76
2022/11/10 07:47:58;;;;;;;8.13;4.93;;;;;;;8.44;100.00;99125.81;5096934;28;20255;-75
2022/11/10 07:50:25;;;;;;;8.10;5.30;;;;;;;8.45;100.00;99128.34;5096871;28;20653;-76
2022/11/10 07:52:52;;;;;;;8.80;5.23;;;;;;;8.47;100.00;99131.78;5096819;28;20644;-75
2022/11/10 07:55:18;;;;;;;10.17;5.00;;;;;;;8.51;100.00;99137.78;5097191;28;20264;-77
2022/11/10 07:57:45;;;;;;;8.50;5.50;;;;;;;8.56;100.00;99141.06;5095002;28;20693;-75
2022/11/10 08:00:15;;;;;;;7.67;5.30;;;;;;;8.61;100.00;99144.31;5096691;28;20220;-75
2022/11/10 08:02:42;;;;;;;8.20;5.43;;;;;;;8.66;100.00;99152.88;5096678;28;20236;-75
2022/11/10 08:05:09;;;;;;;8.20;5.10;;;;;;;8.66;100.00;99158.16;5096738;28;20248;-75
2022/11/10 08:07:35;;;;;;;7.83;5.03;;;;;;;8.67;100.00;99160.72;5096610;28;20251;-75
2022/11/10 08:10:02;;;;;;;7.90;5.07;;;;;;;8.70;100.00;99151.81;5096728;28;20274;-75
2022/11/10 08:12:29;;;;;;;6.60;4.77;;;;;;;8.73;100.00;99160.44;5096521;28;20684;-75
2022/11/10 08:14:55;;;;;;;6.37;4.90;;;;;;;8.75;100.00;99160.38;5096552;28;20250;-76
2022/11/10 08:17:23;;;;;;;9.30;5.23;;;;;;;8.86;100.00;99168.63;5096475;28;20324;-76
2022/11/10 08:19:50;;;;;;;6.53;5.30;;;;;;;8.89;100.00;99163.22;5096580;28;20300;-76
2022/11/10 08:22:17;;;;;;;9.00;5.47;;;;;;;8.95;100.00;99170.84;5094715;28;20247;-76
2022/11/10 08:24:43;;;;;;;9.60;5.90;;;;;;;9.03;100.00;99169.56;5096661;28;20372;-77
2022/11/10 08:27:10;;;;;;;9.87;5.43;;;;;;;9.08;100.00;99174.63;5096600;28;20292;-76
2022/11/10 08:29:37;;;;;;;8.10;5.50;;;;;;;9.13;100.00;99177.91;5096534;28;20277;-76
2022/11/10 08:32:04;;;;;;;7.60;5.00;;;;;;;9.17;100.00;99176.84;5096490;28;20261;-76
2022/11/10 08:34:32;;;;;;;6.80;4.87;;;;;;;9.22;100.00;99175.69;5096584;28;20262;-74
2022/11/10 08:36:58;;;;;;;8.03;5.00;;;;;;;9.28;100.00;99179.81;5099221;28;20323;-75
2022/11/10 08:39:25;;;;;;;8.87;5.63;;;;;;;9.33;100.00;99181.31;5100105;28;20668;-75
2022/11/10 08:41:51;;;;;;;9.83;5.43;;;;;;;9.41;100.00;99180.94;5100078;28;20261;-75
2022/11/10 08:44:18;;;;;;;6.87;5.43;;;;;;;9.45;100.00;99187.78;5100316;28;20263;-74
2022/11/10 08:46:45;;;;;;;9.00;6.07;;;;;;;9.53;100.00;99182.97;5099844;28;20293;-73
2022/11/10 08:49:12;;;;;;;10.23;6.10;;;;;;;9.62;100.00;99190.47;5098042;28;20230;-74
2022/11/10 08:51:40;;;;;;;7.40;5.00;;;;;;;9.66;100.00;99192.88;5099732;28;20258;-73
2022/11/10 08:54:07;;;;;;;7.23;5.03;;;;;;;9.70;100.00;99194.44;5099771;28;20255;-73
2022/11/10 08:56:34;;;;;;;8.37;4.60;;;;;;;9.77;100.00;99194.97;5099753;28;20319;-73
2022/11/10 08:59:00;;;;;;;9.37;5.43;;;;;;;9.79;100.00;99187.88;5099724;28;20251;-73
2022/11/10 09:01:27;;;;;;;6.37;4.67;;;;;;;9.86;100.00;99197.19;5099609;28;20256;-74
2022/11/10 09:03:53;;;;;;;7.83;4.50;;;;;;;9.94;100.00;99197.66;5099556;28;20261;-73
2022/11/10 09:06:20;;;;;;;6.20;4.40;;;;;;;9.96;100.00;99201.94;5099555;28;20245;-74
2022/11/10 09:08:48;;;;;;;7.03;4.10;;;;;;;10.01;100.00;99212.25;5099643;28;20303;-74
2022/11/10 09:11:15;;;;;;;6.07;3.93;;;;;;;10.09;100.00;99218.06;5099450;28;20250;-74
2022/11/10 09:13:41;;;;;;;5.40;3.47;;;;;;;10.13;100.00;99214.31;5097905;28;20258;-74
2022/11/10 09:16:08;;;;;;;5.67;3.33;;;;;;;10.16;100.00;99208.91;5098928;28;20255;-74
2022/11/10 09:18:35;;;;;;;6.73;4.03;;;;;;;10.25;100.00;99217.22;5099328;28;20224;-74
2022/11/10 09:21:02;;;;;;;5.40;3.30;;;;;;;10.35;100.00;99220.25;5099289;28;20258;-74
2022/11/10 09:23:29;;;;;;;5.87;3.20;;;;;;;10.35;100.00;99220.25;5099186;28;20252;-74
2022/11/10 09:25:57;;;;;;;5.47;2.93;;;;;;;10.40;100.00;99224.34;5099245;28;20217;-74
2022/11/10 09:28:24;;;;;;;4.10;2.33;;;;;;;10.38;100.00;99225.34;5099080;28;20237;-74
2022/11/10 09:30:52;;;;;;;5.00;2.10;;;;;;;10.48;100.00;99229.25;5098956;28;20613;-74
2022/11/10 09:33:19;;;;;;;7.63;2.10;;;;;;;10.44;100.00;99235.63;5098975;28;20254;-74
2022/11/10 09:35:45;;;;;;;6.23;2.17;;;;;;;10.49;100.00;99246.81;5098974;28;20277;-74
2022/11/10 09:38:13;;;;;;;2.87;1.70;;;;;;;10.51;100.00;99250.25;5098894;28;20276;-74
2022/11/10 09:40:51;;;;;;;4.77;1.33;;;;;;;10.59;100.00;99253.34;5097305;28;20690;-74
2022/11/10 09:43:27;;;;;;;4.73;1.70;;;;;;;10.56;100.00;99256.13;5098889;28;20299;-74
2022/11/10 09:45:57;;;;;;;4.63;1.50;;;;;;;10.57;100.00;99263.13;5098661;28;20216;-74
2022/11/10 09:48:27;;;;;;;3.70;1.40;;;;;;;10.63;100.00;99273.38;5098448;28;20287;-73
2022/11/10 09:50:58;;;;;;;2.10;1.23;;;;;;;10.61;100.00;99269.97;5098662;28;20254;-74
2022/11/10 09:53:28;;;;;;;3.77;1.50;;;;;;;10.63;100.00;99278.66;5098613;28;20252;-75
2022/11/10 09:56:00;;;;;;;5.37;1.37;;;;;;;10.53;100.00;99272.16;5098604;28;20257;-74
2022/11/10 09:58:33;;;;;;;3.93;1.40;;;;;;;10.66;100.00;99278.53;5098415;28;20271;-74
2022/11/10 10:01:10;;;;;;;3.50;1.40;;;;;;;10.73;100.00;99279.91;5098514;28;20254;-74
2022/11/10 10:03:46;;;;;;;2.43;1.00;;;;;;;10.75;100.00;99272.75;5098563;28;20215;-76
2022/11/10 10:06:15;;;;;;;2.40;1.03;;;;;;;10.78;100.00;99275.25;5097198;28;20259;-74
2022/11/10 10:08:57;;;;;;;3.20;1.20;;;;;;;10.80;100.00;99279.53;5098429;28;20281;-74
2022/11/10 10:11:36;;;;;;;3.90;1.27;;;;;;;10.92;100.00;99280.66;5098299;28;20291;-75
2022/11/10 10:14:23;;;;;;;3.10;1.23;;;;;;;11.03;100.00;99273.91;5098168;28;20260;-75
2022/11/10 10:16:57;;;;;;;2.63;0.90;;;;;;;10.93;100.00;99277.94;5098045;28;20270;-75
2022/11/10 10:19:31;;;;;;;4.23;1.63;;;;;;;11.03;100.00;99279.19;5098070;28;20621;-74
2022/11/10 10:22:17;;;;;;;3.63;1.07;;;;;;;11.09;100.00;99278.84;5097816;28;20255;-74
2022/11/10 10:24:44;;;;;;;5.87;1.40;;;;;;;11.08;100.00;99271.84;5098080;28;20251;-74
2022/11/10 10:27:21;;;;;;;3.87;1.43;;;;;;;11.13;100.00;99268.97;5098014;28;20341;-73
2022/11/10 10:29:49;;;;;;;2.97;1.07;;;;;;;11.09;100.00;99273.56;5098036;28;20256;-73
2022/11/10 10:32:17;;;;;;;4.87;1.30;;;;;;;11.21;100.00;99267.63;5096230;28;20250;-76
2022/11/10 10:34:45;;;;;;;2.10;1.10;;;;;;;11.26;100.00;99270.00;5097853;28;20248;-75
2022/11/10 10:37:22;;;;;;;1.80;0.90;;;;;;;11.40;100.00;99278.06;5097800;28;20267;-75
2022/11/10 10:39:51;;;;;;;2.27;0.90;;;;;;;11.42;100.00;99287.63;5097786;28;20256;-74
2022/11/10 10:42:30;;;;;;;5.17;1.27;;;;;;;11.51;100.00;99286.28;5098188;28;20634;-74
2022/11/10 10:45:22;;;;;;;3.13;1.40;;;;;;;11.58;100.00;99287.63;5097593;28;20218;-75
2022/11/10 10:47:51;;;;;;;4.23;1.30;;;;;;;11.63;100.00;99285.63;5097620;28;20258;-75
2022/11/10 10:50:25;;;;;;;3.93;1.20;;;;;;;11.62;100.00;99283.94;5097537;28;20260;-74
2022/11/10 10:53:12;;;;;;;2.10;1.10;;;;;;;11.72;100.00;99274.50;5097509;28;20262;-74
2022/11/10 10:55:46;;;;;;;2.00;1.10;;;;;;;11.70;100.00;99265.81;5097654;28;20217;-75
2022/11/10 10:58:22;;;;;;;3.03;1.00;;;;;;;11.77;100.00;99245.97;5094946;28;20324;-74
2022/11/10 11:00:54;;;;;;;3.83;1.40;;;;;;;11.87;100.00;99260.44;5097478;28;20263;-75
2022/11/10 11:03:26;;;;;;;2.57;1.27;;;;;;;11.88;100.00;99265.66;5097275;28;20253;-74
2022/11/10 11:06:05;;;;;;;3.07;0.93;;;;;;;11.94;100.00;99264.44;5097359;28;20295;-75
2022/11/10 11:08:32;;;;;;;2.50;1.00;;;;;;;11.95;100.00;99266.13;5097318;28;20302;-73
2022/11/10 11:11:08;;;;;;;3.23;1.10;;;;;;;11.98;100.00;99252.72;5097288;28;20541;-73
2022/11/10 11:13:35;;;;;;;2.13;0.90;;;;;;;12.10;100.00;99249.38;5097150;28;20261;-74
2022/11/10 11:16:06;;;;;;;2.07;1.10;;;;;;;12.19;100.00;99254.13;5097171;28;20253;-75
2022/11/10 11:18:33;;;;;;;2.57;1.10;;;;;;;12.24;100.00;99257.38;5097092;28;20238;-73
2022/11/10 11:21:06;;;;;;;2.53;1.23;;;;;;;12.28;100.00;99243.00;5097204;28;20249;-73
2022/11/10 11:24:00;;;;;;;1.20;0.93;;;;;;;12.36;100.00;99215.06;5095585;28;20258;-73
2022/11/10 11:26:36;;;;;;;3.87;1.37;;;;;;;12.59;100.00;99181.91;5097135;28;20252;-74
2022/11/10 11:29:10;;;;;;;4.57;1.27;;;;;;;12.69;96.69;99169.75;5097213;28;20264;-75
2022/11/10 11:31:49;;;;;;;5.23;1.33;;;;;;;12.87;97.89;99185.41;5097203;28;20254;-76
2022/11/10 11:34:21;;;;;;;4.50;1.30;;;;;;;13.01;96.38;99184.59;5097293;28;20588;-76
2022/11/10 11:36:57;;;;;;;2.03;1.00;;;;;;;13.05;96.87;99183.44;5097092;28;20254;-76
2022/11/10 11:39:36;;;;;;;2.30;1.00;;;;;;;13.17;93.84;99166.75;5096997;28;20257;-76
2022/11/10 11:42:13;;;;;;;3.47;1.10;;;;;;;13.13;89.54;99138.69;5097032;28;20225;-76
2022/11/10 11:44:58;;;;;;;3.30;1.00;;;;;;;13.18;88.45;99147.22;5096966;28;20263;-75
2022/11/10 11:47:36;;;;;;;1.70;0.93;;;;;;;13.38;89.89;99157.44;5096996;28;20250;-76
2022/11/10 11:50:23;;;;;;;2.03;1.00;;;;;;;13.55;90.54;99163.34;5095483;28;20225;-76
2022/11/10 11:53:00;;;;;;;2.47;0.90;;;;;;;13.74;89.33;99153.22;5096883;28;20253;-76
2022/11/10 11:55:37;;;;;;;0.90;0.80;;;;;;;13.90;89.48;99169.00;5096925;28;20250;-77